sensor_id;sensor_type;location;lat;lon;timestamp;P1;durP1;ratioP1;P2;durP2;ratioP2
4309;SDS011;2168;53.576;9.980;2023-04-01T00:00:53;11.80;;;7.57;;
4309;SDS011;2168;53.576;9.980;2023-04-01T00:03:18;10.77;;;8.00;;
4309;SDS011;2168;53.576;9.980;2023-04-01T00:05:44;9.90;;;7.13;;
4309;SDS011;2168;53.576;9.980;2023-04-01T00:08:10;12.50;;;7.27;;
4309;SDS011;2168;53.576;9.980;2023-04-01T00:10:35;10.43;;;7.07;;
4309;SDS011;2168;53.576;9.980;2023-04-01T00:13:00;11.60;;;7.00;;
4309;SDS011;2168;53.576;9.980;2023-04-01T00:15:25;13.13;;;7.60;;
4309;SDS011;2168;53.576;9.980;2023-04-01T00:17:51;8.87;;;6.90;;
4309;SDS011;2168;53.576;9.980;2023-04-01T00:20:16;10.13;;;7.10;;
4309;SDS011;2168;53.576;9.980;2023-04-01T00:22:41;8.50;;;7.27;;
4309;SDS011;2168;53.576;9.980;2023-04-01T00:25:06;9.17;;;6.53;;
4309;SDS011;2168;53.576;9.980;2023-04-01T00:27:32;15.47;;;7.17;;
4309;SDS011;2168;53.576;9.980;2023-04-01T00:29:57;8.30;;;6.97;;
4309;SDS011;2168;53.576;9.980;2023-04-01T00:32:22;15.63;;;7.57;;
4309;SDS011;2168;53.576;9.980;2023-04-01T00:34:51;11.60;;;7.10;;
4309;SDS011;2168;53.576;9.980;2023-04-01T00:37:17;10.97;;;8.13;;
4309;SDS011;2168;53.576;9.980;2023-04-01T00:39:42;13.00;;;7.60;;
4309;SDS011;2168;53.576;9.980;2023-04-01T00:42:08;9.97;;;7.90;;
4309;SDS011;2168;53.576;9.980;2023-04-01T00:44:34;13.60;;;8.33;;
4309;SDS011;2168;53.576;9.980;2023-04-01T00:46:59;16.30;;;8.07;;
4309;SDS011;2168;53.576;9.980;2023-04-01T00:49:27;14.40;;;7.70;;
4309;SDS011;2168;53.576;9.980;2023-04-01T00:51:54;13.30;;;8.30;;
4309;SDS011;2168;53.576;9.980;2023-04-01T00:54:21;13.57;;;7.07;;
4309;SDS011;2168;53.576;9.980;2023-04-01T00:59:48;9.40;;;6.87;;
4309;SDS011;2168;53.576;9.980;2023-04-01T01:02:16;14.63;;;7.40;;
4309;SDS011;2168;53.576;9.980;2023-04-01T01:04:42;12.93;;;6.63;;
4309;SDS011;2168;53.576;9.980;2023-04-01T01:07:23;10.00;;;7.07;;
4309;SDS011;2168;53.576;9.980;2023-04-01T01:12:31;10.03;;;6.50;;
4309;SDS011;2168;53.576;9.980;2023-04-01T01:15:12;9.57;;;7.10;;
4309;SDS011;2168;53.576;9.980;2023-04-01T01:20:20;10.13;;;6.83;;
4309;SDS011;2168;53.576;9.980;2023-04-01T01:25:16;11.17;;;6.70;;
4309;SDS011;2168;53.576;9.980;2023-04-01T01:27:44;8.33;;;6.03;;
4309;SDS011;2168;53.576;9.980;2023-04-01T01:30:13;8.50;;;6.20;;
4309;SDS011;2168;53.576;9.980;2023-04-01T01:33:01;12.13;;;6.97;;
4309;SDS011;2168;53.576;9.980;2023-04-01T01:38:10;7.73;;;6.33;;
4309;SDS011;2168;53.576;9.980;2023-04-01T01:40:36;9.43;;;6.17;;
4309;SDS011;2168;53.576;9.980;2023-04-01T01:43:05;10.37;;;6.67;;
4309;SDS011;2168;53.576;9.980;2023-04-01T01:45:32;7.50;;;5.73;;
4309;SDS011;2168;53.576;9.980;2023-04-01T01:47:57;8.57;;;6.30;;
4309;SDS011;2168;53.576;9.980;2023-04-01T01:50:23;7.17;;;6.03;;
4309;SDS011;2168;53.576;9.980;2023-04-01T01:52:49;7.90;;;5.73;;
4309;SDS011;2168;53.576;9.980;2023-04-01T01:55:28;9.07;;;6.03;;
4309;SDS011;2168;53.576;9.980;2023-04-01T01:57:55;7.90;;;6.10;;
4309;SDS011;2168;53.576;9.980;2023-04-01T02:00:22;12.17;;;6.30;;
4309;SDS011;2168;53.576;9.980;2023-04-01T02:02:48;9.07;;;6.40;;
4309;SDS011;2168;53.576;9.980;2023-04-01T02:05:19;8.53;;;5.70;;
4309;SDS011;2168;53.576;9.980;2023-04-01T02:07:46;10.30;;;6.83;;
4309;SDS011;2168;53.576;9.980;2023-04-01T02:10:13;6.97;;;5.23;;
4309;SDS011;2168;53.576;9.980;2023-04-01T02:12:39;10.33;;;5.43;;
4309;SDS011;2168;53.576;9.980;2023-04-01T02:15:06;11.13;;;5.43;;
4309;SDS011;2168;53.576;9.980;2023-04-01T02:17:33;14.40;;;5.30;;
4309;SDS011;2168;53.576;9.980;2023-04-01T02:19:59;9.47;;;5.60;;
4309;SDS011;2168;53.576;9.980;2023-04-01T02:22:27;8.70;;;5.90;;
4309;SDS011;2168;53.576;9.980;2023-04-01T02:24:53;9.20;;;5.37;;
4309;SDS011;2168;53.576;9.980;2023-04-01T02:27:20;9.93;;;5.43;;
4309;SDS011;2168;53.576;9.980;2023-04-01T02:29:45;11.60;;;5.43;;
4309;SDS011;2168;53.576;9.980;2023-04-01T02:32:11;6.90;;;5.40;;
4309;SDS011;2168;53.576;9.980;2023-04-01T02:34:37;8.50;;;5.53;;
4309;SDS011;2168;53.576;9.980;2023-04-01T02:37:03;9.37;;;5.47;;
4309;SDS011;2168;53.576;9.980;2023-04-01T02:39:28;7.10;;;5.47;;
4309;SDS011;2168;53.576;9.980;2023-04-01T02:41:54;11.10;;;5.37;;
4309;SDS011;2168;53.576;9.980;2023-04-01T02:44:19;6.70;;;4.83;;
4309;SDS011;2168;53.576;9.980;2023-04-01T02:46:45;9.90;;;5.67;;
4309;SDS011;2168;53.576;9.980;2023-04-01T02:49:10;6.10;;;5.13;;
4309;SDS011;2168;53.576;9.980;2023-04-01T02:51:36;6.37;;;5.13;;
4309;SDS011;2168;53.576;9.980;2023-04-01T02:54:01;7.53;;;5.80;;
4309;SDS011;2168;53.576;9.980;2023-04-01T02:56:26;8.53;;;4.90;;
4309;SDS011;2168;53.576;9.980;2023-04-01T02:58:52;8.40;;;5.60;;
4309;SDS011;2168;53.576;9.980;2023-04-01T03:01:18;8.97;;;6.20;;
4309;SDS011;2168;53.576;9.980;2023-04-01T03:03:43;6.80;;;6.10;;
4309;SDS011;2168;53.576;9.980;2023-04-01T03:06:10;8.00;;;6.10;;
4309;SDS011;2168;53.576;9.980;2023-04-01T03:08:36;9.50;;;6.03;;
4309;SDS011;2168;53.576;9.980;2023-04-01T03:11:01;7.97;;;6.30;;
4309;SDS011;2168;53.576;9.980;2023-04-01T03:13:26;6.70;;;6.00;;
4309;SDS011;2168;53.576;9.980;2023-04-01T03:15:51;9.63;;;6.30;;
4309;SDS011;2168;53.576;9.980;2023-04-01T03:18:17;7.70;;;6.57;;
4309;SDS011;2168;53.576;9.980;2023-04-01T03:20:42;10.33;;;6.40;;
4309;SDS011;2168;53.576;9.980;2023-04-01T03:23:08;10.07;;;6.80;;
4309;SDS011;2168;53.576;9.980;2023-04-01T03:25:33;7.03;;;6.20;;
4309;SDS011;2168;53.576;9.980;2023-04-01T03:27:58;10.07;;;5.93;;
4309;SDS011;2168;53.576;9.980;2023-04-01T03:30:24;11.53;;;6.60;;
4309;SDS011;2168;53.576;9.980;2023-04-01T03:32:50;12.60;;;6.37;;
4309;SDS011;2168;53.576;9.980;2023-04-01T03:35:15;9.67;;;6.80;;
4309;SDS011;2168;53.576;9.980;2023-04-01T03:37:40;12.53;;;6.97;;
4309;SDS011;2168;53.576;9.980;2023-04-01T03:40:06;11.90;;;6.77;;
4309;SDS011;2168;53.576;9.980;2023-04-01T03:42:31;8.13;;;6.17;;
4309;SDS011;2168;53.576;9.980;2023-04-01T03:44:57;8.33;;;6.00;;
4309;SDS011;2168;53.576;9.980;2023-04-01T03:47:22;10.00;;;6.50;;
4309;SDS011;2168;53.576;9.980;2023-04-01T03:49:47;6.97;;;6.00;;
4309;SDS011;2168;53.576;9.980;2023-04-01T03:52:13;6.60;;;5.90;;
4309;SDS011;2168;53.576;9.980;2023-04-01T03:54:38;6.50;;;5.90;;
4309;SDS011;2168;53.576;9.980;2023-04-01T03:57:04;8.40;;;6.00;;
4309;SDS011;2168;53.576;9.980;2023-04-01T03:59:29;7.30;;;5.90;;
4309;SDS011;2168;53.576;9.980;2023-04-01T04:01:54;10.93;;;7.33;;
4309;SDS011;2168;53.576;9.980;2023-04-01T04:04:20;10.97;;;6.23;;
4309;SDS011;2168;53.576;9.980;2023-04-01T04:06:45;11.47;;;7.23;;
4309;SDS011;2168;53.576;9.980;2023-04-01T04:09:10;7.97;;;6.03;;
4309;SDS011;2168;53.576;9.980;2023-04-01T04:11:36;8.97;;;6.53;;
4309;SDS011;2168;53.576;9.980;2023-04-01T04:14:01;6.90;;;6.30;;
4309;SDS011;2168;53.576;9.980;2023-04-01T04:16:27;8.67;;;6.60;;
4309;SDS011;2168;53.576;9.980;2023-04-01T04:18:52;8.47;;;7.07;;
4309;SDS011;2168;53.576;9.980;2023-04-01T04:21:17;12.00;;;6.50;;
4309;SDS011;2168;53.576;9.980;2023-04-01T04:23:43;7.87;;;6.70;;
4309;SDS011;2168;53.576;9.980;2023-04-01T04:26:10;11.40;;;6.73;;
4309;SDS011;2168;53.576;9.980;2023-04-01T04:28:35;11.47;;;6.50;;
4309;SDS011;2168;53.576;9.980;2023-04-01T04:31:01;7.13;;;6.43;;
4309;SDS011;2168;53.576;9.980;2023-04-01T04:33:27;11.80;;;7.07;;
4309;SDS011;2168;53.576;9.980;2023-04-01T04:35:54;9.23;;;7.20;;
4309;SDS011;2168;53.576;9.980;2023-04-01T04:38:20;8.20;;;7.33;;
4309;SDS011;2168;53.576;9.980;2023-04-01T04:40:45;11.40;;;7.37;;
4309;SDS011;2168;53.576;9.980;2023-04-01T04:43:11;8.00;;;7.07;;
4309;SDS011;2168;53.576;9.980;2023-04-01T04:45:36;10.23;;;6.77;;
4309;SDS011;2168;53.576;9.980;2023-04-01T04:48:01;8.57;;;6.70;;
4309;SDS011;2168;53.576;9.980;2023-04-01T04:50:27;10.60;;;7.10;;
4309;SDS011;2168;53.576;9.980;2023-04-01T04:52:52;11.77;;;7.30;;
4309;SDS011;2168;53.576;9.980;2023-04-01T04:55:17;9.53;;;7.20;;
4309;SDS011;2168;53.576;9.980;2023-04-01T04:57:42;9.13;;;6.90;;
4309;SDS011;2168;53.576;9.980;2023-04-01T05:00:08;7.33;;;6.30;;
4309;SDS011;2168;53.576;9.980;2023-04-01T05:02:35;8.50;;;7.50;;
4309;SDS011;2168;53.576;9.980;2023-04-01T05:05:00;7.10;;;6.47;;
4309;SDS011;2168;53.576;9.980;2023-04-01T05:07:25;10.27;;;6.67;;
4309;SDS011;2168;53.576;9.980;2023-04-01T05:09:51;8.83;;;7.67;;
4309;SDS011;2168;53.576;9.980;2023-04-01T05:12:16;10.30;;;7.00;;
4309;SDS011;2168;53.576;9.980;2023-04-01T05:14:41;12.10;;;6.67;;
4309;SDS011;2168;53.576;9.980;2023-04-01T05:17:10;9.60;;;7.47;;
4309;SDS011;2168;53.576;9.980;2023-04-01T05:19:36;8.00;;;7.13;;
4309;SDS011;2168;53.576;9.980;2023-04-01T05:22:01;11.47;;;7.50;;
4309;SDS011;2168;53.576;9.980;2023-04-01T05:24:27;7.90;;;7.10;;
4309;SDS011;2168;53.576;9.980;2023-04-01T05:26:52;8.33;;;7.47;;
4309;SDS011;2168;53.576;9.980;2023-04-01T05:29:17;8.47;;;7.67;;
4309;SDS011;2168;53.576;9.980;2023-04-01T05:31:42;3.23;;;2.97;;
4309;SDS011;2168;53.576;9.980;2023-04-01T05:34:07;1.90;;;1.80;;
4309;SDS011;2168;53.576;9.980;2023-04-01T05:36:33;2.33;;;1.83;;
4309;SDS011;2168;53.576;9.980;2023-04-01T05:38:59;1.40;;;1.40;;
4309;SDS011;2168;53.576;9.980;2023-04-01T05:41:24;1.73;;;1.30;;
4309;SDS011;2168;53.576;9.980;2023-04-01T05:43:50;2.30;;;1.50;;
4309;SDS011;2168;53.576;9.980;2023-04-01T05:46:15;1.70;;;1.60;;
4309;SDS011;2168;53.576;9.980;2023-04-01T05:48:40;2.70;;;1.60;;
4309;SDS011;2168;53.576;9.980;2023-04-01T05:51:06;1.90;;;1.80;;
4309;SDS011;2168;53.576;9.980;2023-04-01T05:53:31;1.80;;;1.70;;
4309;SDS011;2168;53.576;9.980;2023-04-01T05:55:56;1.60;;;1.50;;
4309;SDS011;2168;53.576;9.980;2023-04-01T05:58:22;2.67;;;1.70;;
4309;SDS011;2168;53.576;9.980;2023-04-01T06:00:47;1.53;;;1.53;;
4309;SDS011;2168;53.576;9.980;2023-04-01T06:03:12;1.30;;;1.30;;
4309;SDS011;2168;53.576;9.980;2023-04-01T06:05:41;1.53;;;1.47;;
4309;SDS011;2168;53.576;9.980;2023-04-01T06:08:14;1.70;;;1.60;;
4309;SDS011;2168;53.576;9.980;2023-04-01T06:13:30;2.30;;;1.57;;
4309;SDS011;2168;53.576;9.980;2023-04-01T06:16:12;1.43;;;1.43;;
4309;SDS011;2168;53.576;9.980;2023-04-01T06:21:11;1.50;;;1.50;;
4309;SDS011;2168;53.576;9.980;2023-04-01T06:36:25;1.83;;;1.73;;
4309;SDS011;2168;53.576;9.980;2023-04-01T06:44:33;1.40;;;1.40;;
4309;SDS011;2168;53.576;9.980;2023-04-01T06:47:04;1.20;;;1.20;;
4309;SDS011;2168;53.576;9.980;2023-04-01T06:49:41;1.17;;;1.17;;
4309;SDS011;2168;53.576;9.980;2023-04-01T06:54:35;1.40;;;1.30;;
4309;SDS011;2168;53.576;9.980;2023-04-01T06:57:04;1.13;;;1.13;;
4309;SDS011;2168;53.576;9.980;2023-04-01T06:59:32;1.87;;;1.30;;
4309;SDS011;2168;53.576;9.980;2023-04-01T07:04:35;1.13;;;1.13;;
4309;SDS011;2168;53.576;9.980;2023-04-01T07:07:02;1.10;;;1.10;;
4309;SDS011;2168;53.576;9.980;2023-04-01T07:09:34;2.60;;;1.23;;
4309;SDS011;2168;53.576;9.980;2023-04-01T07:12:01;1.07;;;1.07;;
4309;SDS011;2168;53.576;9.980;2023-04-01T07:14:32;1.17;;;1.10;;
4309;SDS011;2168;53.576;9.980;2023-04-01T07:19:34;1.33;;;1.27;;
4309;SDS011;2168;53.576;9.980;2023-04-01T07:24:39;1.53;;;0.90;;
4309;SDS011;2168;53.576;9.980;2023-04-01T07:27:08;2.30;;;1.20;;
4309;SDS011;2168;53.576;9.980;2023-04-01T07:29:34;1.10;;;1.10;;
4309;SDS011;2168;53.576;9.980;2023-04-01T07:32:14;0.90;;;0.90;;
4309;SDS011;2168;53.576;9.980;2023-04-01T07:37:46;1.03;;;1.03;;
4309;SDS011;2168;53.576;9.980;2023-04-01T07:40:18;0.80;;;0.80;;
4309;SDS011;2168;53.576;9.980;2023-04-01T07:42:50;1.10;;;0.93;;
4309;SDS011;2168;53.576;9.980;2023-04-01T07:50:29;1.00;;;1.00;;
4309;SDS011;2168;53.576;9.980;2023-04-01T07:55:30;1.00;;;1.00;;
4309;SDS011;2168;53.576;9.980;2023-04-01T07:58:05;6.67;;;1.20;;
4309;SDS011;2168;53.576;9.980;2023-04-01T08:00:49;1.27;;;0.83;;
4309;SDS011;2168;53.576;9.980;2023-04-01T08:03:22;1.03;;;0.93;;
4309;SDS011;2168;53.576;9.980;2023-04-01T08:05:57;1.33;;;1.23;;
4309;SDS011;2168;53.576;9.980;2023-04-01T08:13:53;1.00;;;1.00;;
4309;SDS011;2168;53.576;9.980;2023-04-01T08:16:28;0.80;;;0.80;;
4309;SDS011;2168;53.576;9.980;2023-04-01T08:18:57;0.80;;;0.80;;
4309;SDS011;2168;53.576;9.980;2023-04-01T08:21:28;0.83;;;0.83;;
4309;SDS011;2168;53.576;9.980;2023-04-01T08:23:57;1.07;;;1.07;;
4309;SDS011;2168;53.576;9.980;2023-04-01T08:26:39;0.90;;;0.90;;
4309;SDS011;2168;53.576;9.980;2023-04-01T08:34:27;0.80;;;0.80;;
4309;SDS011;2168;53.576;9.980;2023-04-01T08:37:10;0.80;;;0.80;;
4309;SDS011;2168;53.576;9.980;2023-04-01T08:39:37;1.00;;;0.90;;
4309;SDS011;2168;53.576;9.980;2023-04-01T08:42:11;0.80;;;0.80;;
4309;SDS011;2168;53.576;9.980;2023-04-01T08:52:22;0.70;;;0.70;;
4309;SDS011;2168;53.576;9.980;2023-04-01T08:57:45;2.47;;;1.10;;
4309;SDS011;2168;53.576;9.980;2023-04-01T09:02:46;0.80;;;0.80;;
4309;SDS011;2168;53.576;9.980;2023-04-01T09:05:34;1.60;;;1.00;;
4309;SDS011;2168;53.576;9.980;2023-04-01T09:08:08;1.00;;;0.90;;
4309;SDS011;2168;53.576;9.980;2023-04-01T09:18:54;2.27;;;2.07;;
4309;SDS011;2168;53.576;9.980;2023-04-01T09:29:26;1.10;;;1.03;;
4309;SDS011;2168;53.576;9.980;2023-04-01T09:45:14;1.07;;;0.90;;
4309;SDS011;2168;53.576;9.980;2023-04-01T09:50:29;0.73;;;0.73;;
4309;SDS011;2168;53.576;9.980;2023-04-01T09:55:33;0.80;;;0.80;;
4309;SDS011;2168;53.576;9.980;2023-04-01T10:00:30;0.90;;;0.90;;
4309;SDS011;2168;53.576;9.980;2023-04-01T10:15:35;0.70;;;0.70;;
4309;SDS011;2168;53.576;9.980;2023-04-01T10:23:20;0.80;;;0.80;;
4309;SDS011;2168;53.576;9.980;2023-04-01T10:28:33;0.80;;;0.80;;
4309;SDS011;2168;53.576;9.980;2023-04-01T10:36:40;0.80;;;0.70;;
4309;SDS011;2168;53.576;9.980;2023-04-01T10:41:41;0.80;;;0.80;;
4309;SDS011;2168;53.576;9.980;2023-04-01T10:55:04;0.60;;;0.60;;
4309;SDS011;2168;53.576;9.980;2023-04-01T11:00:25;0.73;;;0.73;;
4309;SDS011;2168;53.576;9.980;2023-04-01T11:03:15;2.87;;;0.90;;
4309;SDS011;2168;53.576;9.980;2023-04-01T11:14:15;1.43;;;1.33;;
4309;SDS011;2168;53.576;9.980;2023-04-01T11:22:10;1.07;;;1.07;;
4309;SDS011;2168;53.576;9.980;2023-04-01T11:30:18;5.00;;;1.13;;
4309;SDS011;2168;53.576;9.980;2023-04-01T11:40:40;1.40;;;1.20;;
4309;SDS011;2168;53.576;9.980;2023-04-01T11:48:09;1.40;;;1.40;;
4309;SDS011;2168;53.576;9.980;2023-04-01T11:53:26;1.70;;;1.60;;
4309;SDS011;2168;53.576;9.980;2023-04-01T12:11:22;2.83;;;2.03;;
4309;SDS011;2168;53.576;9.980;2023-04-01T12:26:55;2.67;;;2.50;;
4309;SDS011;2168;53.576;9.980;2023-04-01T12:31:58;2.83;;;2.63;;
4309;SDS011;2168;53.576;9.980;2023-04-01T12:42:34;4.13;;;2.53;;
4309;SDS011;2168;53.576;9.980;2023-04-01T12:55:41;3.83;;;3.40;;
4309;SDS011;2168;53.576;9.980;2023-04-01T13:06:10;4.40;;;2.50;;
4309;SDS011;2168;53.576;9.980;2023-04-01T13:16:35;7.47;;;2.57;;
4309;SDS011;2168;53.576;9.980;2023-04-01T13:21:46;2.33;;;1.90;;
4309;SDS011;2168;53.576;9.980;2023-04-01T13:27:06;3.87;;;2.60;;
4309;SDS011;2168;53.576;9.980;2023-04-01T13:29:41;2.77;;;2.57;;
4309;SDS011;2168;53.576;9.980;2023-04-01T13:42:22;3.17;;;2.00;;
4309;SDS011;2168;53.576;9.980;2023-04-01T13:44:51;2.20;;;2.00;;
4309;SDS011;2168;53.576;9.980;2023-04-01T13:47:32;5.33;;;2.30;;
4309;SDS011;2168;53.576;9.980;2023-04-01T13:52:56;3.10;;;2.40;;
4309;SDS011;2168;53.576;9.980;2023-04-01T14:00:23;3.00;;;2.30;;
4309;SDS011;2168;53.576;9.980;2023-04-01T14:03:03;2.90;;;2.50;;
4309;SDS011;2168;53.576;9.980;2023-04-01T14:05:38;4.00;;;2.90;;
4309;SDS011;2168;53.576;9.980;2023-04-01T14:08:13;4.47;;;2.40;;
4309;SDS011;2168;53.576;9.980;2023-04-01T14:18:11;2.53;;;2.33;;
4309;SDS011;2168;53.576;9.980;2023-04-01T14:20:39;5.67;;;2.83;;
4309;SDS011;2168;53.576;9.980;2023-04-01T14:23:25;3.07;;;2.87;;
4309;SDS011;2168;53.576;9.980;2023-04-01T14:36:52;5.70;;;3.70;;
4309;SDS011;2168;53.576;9.980;2023-04-01T14:42:15;4.17;;;3.00;;
4309;SDS011;2168;53.576;9.980;2023-04-01T14:49:49;5.70;;;3.15;;
4309;SDS011;2168;53.576;9.980;2023-04-01T14:52:17;2.60;;;2.33;;
4309;SDS011;2168;53.576;9.980;2023-04-01T14:54:47;3.07;;;2.77;;
4309;SDS011;2168;53.576;9.980;2023-04-01T14:59:39;4.65;;;2.97;;
4309;SDS011;2168;53.576;9.980;2023-04-01T15:04:56;6.60;;;4.13;;
4309;SDS011;2168;53.576;9.980;2023-04-01T15:09:54;4.90;;;3.53;;
4309;SDS011;2168;53.576;9.980;2023-04-01T15:17:44;7.00;;;3.80;;
4309;SDS011;2168;53.576;9.980;2023-04-01T15:20:16;5.13;;;3.60;;
4309;SDS011;2168;53.576;9.980;2023-04-01T15:28:02;5.80;;;4.17;;
4309;SDS011;2168;53.576;9.980;2023-04-01T15:30:49;6.77;;;3.63;;
4309;SDS011;2168;53.576;9.980;2023-04-01T15:38:51;5.00;;;3.10;;
4309;SDS011;2168;53.576;9.980;2023-04-01T15:41:42;4.23;;;3.60;;
4309;SDS011;2168;53.576;9.980;2023-04-01T15:46:52;8.77;;;4.30;;
4309;SDS011;2168;53.576;9.980;2023-04-01T15:52:06;10.00;;;4.37;;
4309;SDS011;2168;53.576;9.980;2023-04-01T15:57:32;14.70;;;4.60;;
4309;SDS011;2168;53.576;9.980;2023-04-01T16:10:23;7.70;;;4.60;;
4309;SDS011;2168;53.576;9.980;2023-04-01T16:12:56;8.60;;;4.03;;
4309;SDS011;2168;53.576;9.980;2023-04-01T16:15:40;12.80;;;4.77;;
4309;SDS011;2168;53.576;9.980;2023-04-01T16:20:53;20.57;;;8.77;;
4309;SDS011;2168;53.576;9.980;2023-04-01T16:23:34;10.33;;;5.83;;
4309;SDS011;2168;53.576;9.980;2023-04-01T16:26:05;36.50;;;17.57;;
4309;SDS011;2168;53.576;9.980;2023-04-01T16:31:04;13.60;;;6.97;;
4309;SDS011;2168;53.576;9.980;2023-04-01T16:33:32;8.60;;;4.27;;
4309;SDS011;2168;53.576;9.980;2023-04-01T16:41:24;13.63;;;5.37;;
4309;SDS011;2168;53.576;9.980;2023-04-01T16:43:50;11.10;;;5.70;;
4309;SDS011;2168;53.576;9.980;2023-04-01T16:46:35;8.40;;;4.03;;
4309;SDS011;2168;53.576;9.980;2023-04-01T16:51:44;10.70;;;4.70;;
4309;SDS011;2168;53.576;9.980;2023-04-01T16:54:13;40.23;;;20.80;;
4309;SDS011;2168;53.576;9.980;2023-04-01T16:56:45;8.50;;;4.97;;
4309;SDS011;2168;53.576;9.980;2023-04-01T16:59:14;55.40;;;26.87;;
4309;SDS011;2168;53.576;9.980;2023-04-01T17:04:45;9.97;;;5.47;;
4309;SDS011;2168;53.576;9.980;2023-04-01T17:15:37;6.13;;;4.17;;
4309;SDS011;2168;53.576;9.980;2023-04-01T17:20:36;5.30;;;3.90;;
4309;SDS011;2168;53.576;9.980;2023-04-01T17:25:51;9.27;;;3.73;;
4309;SDS011;2168;53.576;9.980;2023-04-01T17:33:27;6.20;;;3.00;;
4309;SDS011;2168;53.576;9.980;2023-04-01T17:41:24;3.60;;;2.80;;
4309;SDS011;2168;53.576;9.980;2023-04-01T17:44:07;5.33;;;3.07;;
4309;SDS011;2168;53.576;9.980;2023-04-01T17:57:30;2.50;;;2.27;;
4309;SDS011;2168;53.576;9.980;2023-04-01T18:08:03;4.03;;;2.53;;
4309;SDS011;2168;53.576;9.980;2023-04-01T18:10:40;3.53;;;2.00;;
4309;SDS011;2168;53.576;9.980;2023-04-01T18:15:40;2.77;;;2.00;;
4309;SDS011;2168;53.576;9.980;2023-04-01T18:20:58;2.60;;;2.30;;
4309;SDS011;2168;53.576;9.980;2023-04-01T18:26:23;4.67;;;2.40;;
4309;SDS011;2168;53.576;9.980;2023-04-01T18:28:53;4.20;;;2.17;;
4309;SDS011;2168;53.576;9.980;2023-04-01T18:31:22;8.07;;;2.20;;
4309;SDS011;2168;53.576;9.980;2023-04-01T18:33:54;7.00;;;2.57;;
4309;SDS011;2168;53.576;9.980;2023-04-01T18:39:23;5.60;;;2.43;;
4309;SDS011;2168;53.576;9.980;2023-04-01T18:42:10;3.30;;;1.97;;
4309;SDS011;2168;53.576;9.980;2023-04-01T18:44:45;4.47;;;2.50;;
4309;SDS011;2168;53.576;9.980;2023-04-01T18:47:24;3.03;;;2.70;;
4309;SDS011;2168;53.576;9.980;2023-04-01T18:52:42;4.97;;;2.73;;
4309;SDS011;2168;53.576;9.980;2023-04-01T19:02:43;9.63;;;3.10;;
4309;SDS011;2168;53.576;9.980;2023-04-01T19:05:17;4.30;;;2.97;;
4309;SDS011;2168;53.576;9.980;2023-04-01T19:07:48;6.20;;;2.63;;
4309;SDS011;2168;53.576;9.980;2023-04-01T19:10:20;5.03;;;2.73;;
4309;SDS011;2168;53.576;9.980;2023-04-01T19:15:52;6.80;;;3.13;;
4309;SDS011;2168;53.576;9.980;2023-04-01T19:18:26;4.67;;;2.80;;
4309;SDS011;2168;53.576;9.980;2023-04-01T19:20:57;4.00;;;2.70;;
4309;SDS011;2168;53.576;9.980;2023-04-01T19:23:47;3.83;;;2.47;;
4309;SDS011;2168;53.576;9.980;2023-04-01T19:26:17;8.00;;;2.37;;
4309;SDS011;2168;53.576;9.980;2023-04-01T19:28:58;6.07;;;2.63;;
4309;SDS011;2168;53.576;9.980;2023-04-01T19:31:40;5.30;;;2.37;;
4309;SDS011;2168;53.576;9.980;2023-04-01T19:34:18;2.57;;;2.10;;
4309;SDS011;2168;53.576;9.980;2023-04-01T19:36:55;9.90;;;2.60;;
4309;SDS011;2168;53.576;9.980;2023-04-01T19:41:58;4.90;;;2.50;;
4309;SDS011;2168;53.576;9.980;2023-04-01T19:44:31;7.03;;;3.70;;
4309;SDS011;2168;53.576;9.980;2023-04-01T19:47:11;1.30;;;1.20;;
4309;SDS011;2168;53.576;9.980;2023-04-01T19:54:58;0.00;;;0.00;;
4309;SDS011;2168;53.576;9.980;2023-04-01T19:57:43;0.00;;;0.00;;
4309;SDS011;2168;53.576;9.980;2023-04-01T20:05:28;0.00;;;0.00;;
4309;SDS011;2168;53.576;9.980;2023-04-01T20:07:58;0.00;;;0.00;;
4309;SDS011;2168;53.576;9.980;2023-04-01T20:10:32;0.10;;;0.10;;
4309;SDS011;2168;53.576;9.980;2023-04-01T20:13:13;0.00;;;0.00;;
4309;SDS011;2168;53.576;9.980;2023-04-01T20:15:43;0.10;;;0.10;;
4309;SDS011;2168;53.576;9.980;2023-04-01T20:18:16;0.13;;;0.13;;
4309;SDS011;2168;53.576;9.980;2023-04-01T20:20:51;3.97;;;1.57;;
4309;SDS011;2168;53.576;9.980;2023-04-01T20:23:25;2.13;;;1.90;;
4309;SDS011;2168;53.576;9.980;2023-04-01T20:25:53;3.07;;;2.80;;
4309;SDS011;2168;53.576;9.980;2023-04-01T20:28:25;4.87;;;2.13;;
4309;SDS011;2168;53.576;9.980;2023-04-01T20:31:10;6.73;;;2.27;;
4309;SDS011;2168;53.576;9.980;2023-04-01T20:33:48;4.07;;;2.70;;
4309;SDS011;2168;53.576;9.980;2023-04-01T20:36:21;5.40;;;2.50;;
4309;SDS011;2168;53.576;9.980;2023-04-01T20:38:58;5.70;;;2.50;;
4309;SDS011;2168;53.576;9.980;2023-04-01T20:41:40;9.50;;;2.20;;
4309;SDS011;2168;53.576;9.980;2023-04-01T20:44:11;2.70;;;2.03;;
4309;SDS011;2168;53.576;9.980;2023-04-01T21:11:01;2.33;;;2.00;;
4309;SDS011;2168;53.576;9.980;2023-04-01T21:13:44;3.53;;;2.07;;
4309;SDS011;2168;53.576;9.980;2023-04-01T21:16:35;6.80;;;2.27;;
4309;SDS011;2168;53.576;9.980;2023-04-01T21:24:30;2.73;;;2.40;;
4309;SDS011;2168;53.576;9.980;2023-04-01T21:29:51;3.60;;;1.97;;
4309;SDS011;2168;53.576;9.980;2023-04-01T21:35:05;6.30;;;1.80;;
4309;SDS011;2168;53.576;9.980;2023-04-01T21:37:40;3.90;;;2.20;;
4309;SDS011;2168;53.576;9.980;2023-04-01T21:45:39;5.90;;;2.03;;
4309;SDS011;2168;53.576;9.980;2023-04-01T21:53:21;5.93;;;2.23;;
4309;SDS011;2168;53.576;9.980;2023-04-01T22:06:03;3.07;;;1.80;;
4309;SDS011;2168;53.576;9.980;2023-04-01T22:08:36;2.90;;;1.70;;
4309;SDS011;2168;53.576;9.980;2023-04-01T22:11:18;5.93;;;2.13;;
4309;SDS011;2168;53.576;9.980;2023-04-01T22:14:09;2.50;;;1.40;;
4309;SDS011;2168;53.576;9.980;2023-04-01T22:16:43;4.60;;;1.80;;
4309;SDS011;2168;53.576;9.980;2023-04-01T22:19:16;9.13;;;1.87;;
4309;SDS011;2168;53.576;9.980;2023-04-01T22:27:28;4.07;;;1.50;;
4309;SDS011;2168;53.576;9.980;2023-04-01T22:35:04;6.00;;;1.37;;
4309;SDS011;2168;53.576;9.980;2023-04-01T22:42:52;0.10;;;0.10;;
4309;SDS011;2168;53.576;9.980;2023-04-01T22:45:27;0.00;;;0.00;;
4309;SDS011;2168;53.576;9.980;2023-04-01T22:50:40;0.10;;;0.10;;
4309;SDS011;2168;53.576;9.980;2023-04-01T22:55:50;0.00;;;0.00;;
4309;SDS011;2168;53.576;9.980;2023-04-01T22:58:26;2.40;;;1.60;;
4309;SDS011;2168;53.576;9.980;2023-04-01T23:00:55;4.80;;;1.60;;
4309;SDS011;2168;53.576;9.980;2023-04-01T23:03:22;5.60;;;2.00;;
4309;SDS011;2168;53.576;9.980;2023-04-01T23:05:51;3.20;;;1.17;;
4309;SDS011;2168;53.576;9.980;2023-04-01T23:11:08;2.30;;;1.50;;
4309;SDS011;2168;53.576;9.980;2023-04-01T23:13:35;3.40;;;1.80;;
4309;SDS011;2168;53.576;9.980;2023-04-01T23:16:02;4.97;;;1.33;;
4309;SDS011;2168;53.576;9.980;2023-04-01T23:26:14;3.23;;;1.50;;
4309;SDS011;2168;53.576;9.980;2023-04-01T23:28:49;2.70;;;1.30;;
4309;SDS011;2168;53.576;9.980;2023-04-01T23:33:56;0.03;;;0.03;;
4309;SDS011;2168;53.576;9.980;2023-04-01T23:36:23;0.00;;;0.00;;
4309;SDS011;2168;53.576;9.980;2023-04-01T23:38:48;0.00;;;0.00;;
4309;SDS011;2168;53.576;9.980;2023-04-01T23:41:18;0.00;;;0.00;;
4309;SDS011;2168;53.576;9.980;2023-04-01T23:43:45;0.00;;;0.00;;
4309;SDS011;2168;53.576;9.980;2023-04-01T23:46:15;0.00;;;0.00;;
4309;SDS011;2168;53.576;9.980;2023-04-01T23:48:41;0.10;;;0.10;;
4309;SDS011;2168;53.576;9.980;2023-04-01T23:51:29;0.10;;;0.10;;
4309;SDS011;2168;53.576;9.980;2023-04-01T23:54:38;0.00;;;0.00;;
4309;SDS011;2168;53.576;9.980;2023-04-01T23:56:50;0.00;;;0.00;;
4309;SDS011;2168;53.576;9.980;2023-04-01T23:59:17;0.00;;;0.00;;
